sensor_id;sensor_type;location;lat;lon;timestamp;temperature;humidity
15286;DHT22;7744;52.172;10.668;2023-04-08T00:01:41;5.60;99.90
15286;DHT22;7744;52.172;10.668;2023-04-08T00:04:07;5.30;99.90
15286;DHT22;7744;52.172;10.668;2023-04-08T00:06:34;5.20;1.00
15286;DHT22;7744;52.172;10.668;2023-04-08T00:08:59;5.10;1.00
15286;DHT22;7744;52.172;10.668;2023-04-08T00:11:25;5.00;1.00
15286;DHT22;7744;52.172;10.668;2023-04-08T00:13:51;5.00;1.00
15286;DHT22;7744;52.172;10.668;2023-04-08T00:16:16;4.90;6.60
15286;DHT22;7744;52.172;10.668;2023-04-08T00:18:42;5.30;99.40
15286;DHT22;7744;52.172;10.668;2023-04-08T00:21:07;5.10;99.90
15286;DHT22;7744;52.172;10.668;2023-04-08T00:23:33;5.10;99.90
15286;DHT22;7744;52.172;10.668;2023-04-08T00:25:59;5.00;99.90
15286;DHT22;7744;52.172;10.668;2023-04-08T00:28:24;5.10;99.90
15286;DHT22;7744;52.172;10.668;2023-04-08T00:30:51;5.10;99.90
15286;DHT22;7744;52.172;10.668;2023-04-08T00:33:17;5.10;99.90
15286;DHT22;7744;52.172;10.668;2023-04-08T00:35:43;5.20;25.90
15286;DHT22;7744;52.172;10.668;2023-04-08T00:38:08;5.30;91.80
15286;DHT22;7744;52.172;10.668;2023-04-08T00:40:34;5.30;1.00
15286;DHT22;7744;52.172;10.668;2023-04-08T00:43:00;5.40;1.00
15286;DHT22;7744;52.172;10.668;2023-04-08T00:45:25;5.30;1.00
15286;DHT22;7744;52.172;10.668;2023-04-08T00:47:51;5.10;99.90
15286;DHT22;7744;52.172;10.668;2023-04-08T00:50:17;5.00;99.90
15286;DHT22;7744;52.172;10.668;2023-04-08T00:52:43;5.10;1.00
15286;DHT22;7744;52.172;10.668;2023-04-08T00:55:09;5.10;99.90
15286;DHT22;7744;52.172;10.668;2023-04-08T00:57:34;5.10;99.90
15286;DHT22;7744;52.172;10.668;2023-04-08T01:00:00;5.10;99.90
15286;DHT22;7744;52.172;10.668;2023-04-08T01:07:54;5.10;99.90
15286;DHT22;7744;52.172;10.668;2023-04-08T01:10:26;5.00;1.00
15286;DHT22;7744;52.172;10.668;2023-04-08T01:12:56;5.10;1.00
15286;DHT22;7744;52.172;10.668;2023-04-08T01:15:23;5.10;1.00
15286;DHT22;7744;52.172;10.668;2023-04-08T01:17:52;5.10;99.90
15286;DHT22;7744;52.172;10.668;2023-04-08T01:20:19;5.20;99.90
15286;DHT22;7744;52.172;10.668;2023-04-08T01:25:30;5.10;1.00
15286;DHT22;7744;52.172;10.668;2023-04-08T01:27:58;5.10;1.00
15286;DHT22;7744;52.172;10.668;2023-04-08T01:30:25;5.20;1.00
15286;DHT22;7744;52.172;10.668;2023-04-08T01:32:53;5.20;99.90
15286;DHT22;7744;52.172;10.668;2023-04-08T01:35:20;5.10;1.00
15286;DHT22;7744;52.172;10.668;2023-04-08T01:37:50;5.00;1.00
15286;DHT22;7744;52.172;10.668;2023-04-08T01:40:18;5.00;1.00
15286;DHT22;7744;52.172;10.668;2023-04-08T01:42:46;4.90;1.00
15286;DHT22;7744;52.172;10.668;2023-04-08T01:45:13;5.00;1.00
15286;DHT22;7744;52.172;10.668;2023-04-08T01:47:40;5.10;1.00
15286;DHT22;7744;52.172;10.668;2023-04-08T01:50:08;5.10;1.00
15286;DHT22;7744;52.172;10.668;2023-04-08T01:52:37;5.20;99.90
15286;DHT22;7744;52.172;10.668;2023-04-08T01:55:04;5.20;99.90
15286;DHT22;7744;52.172;10.668;2023-04-08T01:57:32;5.30;99.90
15286;DHT22;7744;52.172;10.668;2023-04-08T02:00:01;5.40;99.90
15286;DHT22;7744;52.172;10.668;2023-04-08T02:02:29;5.50;1.00
15286;DHT22;7744;52.172;10.668;2023-04-08T02:04:56;5.60;1.00
15286;DHT22;7744;52.172;10.668;2023-04-08T02:07:21;5.60;1.00
15286;DHT22;7744;52.172;10.668;2023-04-08T02:09:47;5.60;1.00
15286;DHT22;7744;52.172;10.668;2023-04-08T02:12:12;5.40;1.00
15286;DHT22;7744;52.172;10.668;2023-04-08T02:14:38;5.30;99.90
15286;DHT22;7744;52.172;10.668;2023-04-08T02:17:11;5.20;99.90
15286;DHT22;7744;52.172;10.668;2023-04-08T02:22:18;5.10;1.00
15286;DHT22;7744;52.172;10.668;2023-04-08T02:24:49;5.00;99.90
15286;DHT22;7744;52.172;10.668;2023-04-08T02:27:16;5.00;99.90
15286;DHT22;7744;52.172;10.668;2023-04-08T02:29:42;5.00;1.00
15286;DHT22;7744;52.172;10.668;2023-04-08T02:32:09;4.90;11.50
15286;DHT22;7744;52.172;10.668;2023-04-08T02:34:39;4.90;1.00
15286;DHT22;7744;52.172;10.668;2023-04-08T02:37:04;4.90;1.00
15286;DHT22;7744;52.172;10.668;2023-04-08T02:39:31;5.00;5.30
15286;DHT22;7744;52.172;10.668;2023-04-08T02:41:57;5.00;1.00
15286;DHT22;7744;52.172;10.668;2023-04-08T02:44:23;5.00;99.90
15286;DHT22;7744;52.172;10.668;2023-04-08T02:46:49;5.10;1.00
15286;DHT22;7744;52.172;10.668;2023-04-08T02:49:14;5.00;1.00
15286;DHT22;7744;52.172;10.668;2023-04-08T02:51:40;5.00;99.90
15286;DHT22;7744;52.172;10.668;2023-04-08T02:54:06;4.90;99.90
15286;DHT22;7744;52.172;10.668;2023-04-08T02:56:31;5.00;1.00
15286;DHT22;7744;52.172;10.668;2023-04-08T02:58:57;4.90;1.00
15286;DHT22;7744;52.172;10.668;2023-04-08T03:01:22;4.90;67.80
15286;DHT22;7744;52.172;10.668;2023-04-08T03:03:48;4.90;99.90
15286;DHT22;7744;52.172;10.668;2023-04-08T03:06:13;5.00;1.00
15286;DHT22;7744;52.172;10.668;2023-04-08T03:08:39;5.00;1.00
15286;DHT22;7744;52.172;10.668;2023-04-08T03:11:04;5.10;1.00
15286;DHT22;7744;52.172;10.668;2023-04-08T03:13:30;5.20;1.00
15286;DHT22;7744;52.172;10.668;2023-04-08T03:15:56;5.20;99.90
15286;DHT22;7744;52.172;10.668;2023-04-08T03:18:22;5.20;1.00
15286;DHT22;7744;52.172;10.668;2023-04-08T03:20:47;5.10;1.00
15286;DHT22;7744;52.172;10.668;2023-04-08T03:23:13;5.00;99.90
15286;DHT22;7744;52.172;10.668;2023-04-08T03:25:38;4.90;64.70
15286;DHT22;7744;52.172;10.668;2023-04-08T03:28:04;5.00;1.00
15286;DHT22;7744;52.172;10.668;2023-04-08T03:30:30;5.00;99.90
15286;DHT22;7744;52.172;10.668;2023-04-08T03:32:55;5.00;1.00
15286;DHT22;7744;52.172;10.668;2023-04-08T03:35:21;5.10;1.00
15286;DHT22;7744;52.172;10.668;2023-04-08T03:37:47;5.20;99.90
15286;DHT22;7744;52.172;10.668;2023-04-08T03:40:12;5.10;1.00
15286;DHT22;7744;52.172;10.668;2023-04-08T03:42:38;5.10;23.10
15286;DHT22;7744;52.172;10.668;2023-04-08T03:45:04;5.10;94.70
15286;DHT22;7744;52.172;10.668;2023-04-08T03:47:30;5.10;1.00
15286;DHT22;7744;52.172;10.668;2023-04-08T03:49:55;5.20;1.00
15286;DHT22;7744;52.172;10.668;2023-04-08T03:52:21;5.30;1.00
15286;DHT22;7744;52.172;10.668;2023-04-08T03:54:47;5.30;99.90
15286;DHT22;7744;52.172;10.668;2023-04-08T03:57:12;5.20;1.00
15286;DHT22;7744;52.172;10.668;2023-04-08T03:59:38;5.20;99.90
15286;DHT22;7744;52.172;10.668;2023-04-08T04:02:05;5.10;1.00
15286;DHT22;7744;52.172;10.668;2023-04-08T04:04:31;5.10;99.90
15286;DHT22;7744;52.172;10.668;2023-04-08T04:06:58;5.10;99.90
15286;DHT22;7744;52.172;10.668;2023-04-08T04:09:23;5.20;99.90
15286;DHT22;7744;52.172;10.668;2023-04-08T04:11:49;5.10;99.90
15286;DHT22;7744;52.172;10.668;2023-04-08T04:14:15;5.10;99.90
15286;DHT22;7744;52.172;10.668;2023-04-08T04:16:40;5.20;99.90
15286;DHT22;7744;52.172;10.668;2023-04-08T04:19:06;5.20;99.90
15286;DHT22;7744;52.172;10.668;2023-04-08T04:21:32;5.20;99.90
15286;DHT22;7744;52.172;10.668;2023-04-08T04:23:57;5.20;90.60
15286;DHT22;7744;52.172;10.668;2023-04-08T04:26:23;5.20;1.00
15286;DHT22;7744;52.172;10.668;2023-04-08T04:28:48;5.10;99.90
15286;DHT22;7744;52.172;10.668;2023-04-08T04:31:21;5.10;99.90
15286;DHT22;7744;52.172;10.668;2023-04-08T04:33:48;5.10;99.90
15286;DHT22;7744;52.172;10.668;2023-04-08T04:36:14;4.90;99.90
15286;DHT22;7744;52.172;10.668;2023-04-08T04:38:40;5.00;1.00
15286;DHT22;7744;52.172;10.668;2023-04-08T04:41:07;5.00;16.60
15286;DHT22;7744;52.172;10.668;2023-04-08T04:43:32;5.10;30.90
15286;DHT22;7744;52.172;10.668;2023-04-08T04:45:58;5.10;99.90
15286;DHT22;7744;52.172;10.668;2023-04-08T04:48:24;5.20;1.00
15286;DHT22;7744;52.172;10.668;2023-04-08T04:50:56;5.20;99.90
15286;DHT22;7744;52.172;10.668;2023-04-08T04:53:22;5.20;99.90
15286;DHT22;7744;52.172;10.668;2023-04-08T04:55:48;5.30;99.90
15286;DHT22;7744;52.172;10.668;2023-04-08T04:58:14;5.20;99.90
15286;DHT22;7744;52.172;10.668;2023-04-08T05:00:39;5.10;1.00
15286;DHT22;7744;52.172;10.668;2023-04-08T05:03:05;5.20;99.90
15286;DHT22;7744;52.172;10.668;2023-04-08T05:05:31;5.20;99.90
15286;DHT22;7744;52.172;10.668;2023-04-08T05:07:56;5.20;99.90
15286;DHT22;7744;52.172;10.668;2023-04-08T05:10:22;5.20;99.90
15286;DHT22;7744;52.172;10.668;2023-04-08T05:12:47;5.20;1.00
15286;DHT22;7744;52.172;10.668;2023-04-08T05:15:13;5.20;1.00
15286;DHT22;7744;52.172;10.668;2023-04-08T05:17:39;5.10;99.90
15286;DHT22;7744;52.172;10.668;2023-04-08T05:20:05;5.10;1.00
15286;DHT22;7744;52.172;10.668;2023-04-08T05:22:31;5.00;1.00
15286;DHT22;7744;52.172;10.668;2023-04-08T05:24:56;5.00;1.00
15286;DHT22;7744;52.172;10.668;2023-04-08T05:27:22;4.90;99.90
15286;DHT22;7744;52.172;10.668;2023-04-08T05:29:47;5.00;99.90
15286;DHT22;7744;52.172;10.668;2023-04-08T05:32:13;4.90;1.00
15286;DHT22;7744;52.172;10.668;2023-04-08T05:34:38;4.80;1.00
15286;DHT22;7744;52.172;10.668;2023-04-08T05:37:04;4.90;99.90
15286;DHT22;7744;52.172;10.668;2023-04-08T05:39:30;5.00;99.90
15286;DHT22;7744;52.172;10.668;2023-04-08T05:41:55;5.00;99.90
15286;DHT22;7744;52.172;10.668;2023-04-08T05:44:21;5.00;99.90
15286;DHT22;7744;52.172;10.668;2023-04-08T05:46:46;5.10;99.90
15286;DHT22;7744;52.172;10.668;2023-04-08T05:49:12;5.10;1.00
15286;DHT22;7744;52.172;10.668;2023-04-08T05:51:38;5.00;1.00
15286;DHT22;7744;52.172;10.668;2023-04-08T05:54:04;5.00;1.00
15286;DHT22;7744;52.172;10.668;2023-04-08T05:56:29;5.10;1.00
15286;DHT22;7744;52.172;10.668;2023-04-08T05:58:56;5.10;1.00
15286;DHT22;7744;52.172;10.668;2023-04-08T06:01:22;5.10;1.00
15286;DHT22;7744;52.172;10.668;2023-04-08T06:03:48;5.10;1.00
15286;DHT22;7744;52.172;10.668;2023-04-08T06:06:13;5.00;99.90
15286;DHT22;7744;52.172;10.668;2023-04-08T06:08:39;5.20;1.00
15286;DHT22;7744;52.172;10.668;2023-04-08T06:11:05;5.20;1.00
15286;DHT22;7744;52.172;10.668;2023-04-08T06:13:31;5.20;1.00
15286;DHT22;7744;52.172;10.668;2023-04-08T06:15:58;5.30;1.00
15286;DHT22;7744;52.172;10.668;2023-04-08T06:18:24;5.30;99.90
15286;DHT22;7744;52.172;10.668;2023-04-08T06:20:49;5.30;1.00
15286;DHT22;7744;52.172;10.668;2023-04-08T06:23:15;5.30;1.00
15286;DHT22;7744;52.172;10.668;2023-04-08T06:25:41;5.30;1.00
15286;DHT22;7744;52.172;10.668;2023-04-08T06:28:06;5.20;99.90
15286;DHT22;7744;52.172;10.668;2023-04-08T06:30:32;5.20;1.00
15286;DHT22;7744;52.172;10.668;2023-04-08T06:32:57;5.20;99.90
15286;DHT22;7744;52.172;10.668;2023-04-08T06:35:23;5.20;99.90
15286;DHT22;7744;52.172;10.668;2023-04-08T06:37:49;5.20;99.90
15286;DHT22;7744;52.172;10.668;2023-04-08T06:40:14;5.30;99.90
15286;DHT22;7744;52.172;10.668;2023-04-08T06:42:40;5.30;1.00
15286;DHT22;7744;52.172;10.668;2023-04-08T06:45:07;5.40;99.90
15286;DHT22;7744;52.172;10.668;2023-04-08T06:47:33;5.40;1.00
15286;DHT22;7744;52.172;10.668;2023-04-08T06:49:59;5.50;1.00
15286;DHT22;7744;52.172;10.668;2023-04-08T06:52:24;5.50;1.00
15286;DHT22;7744;52.172;10.668;2023-04-08T06:54:50;5.60;1.00
15286;DHT22;7744;52.172;10.668;2023-04-08T06:57:16;5.70;1.00
15286;DHT22;7744;52.172;10.668;2023-04-08T06:59:41;5.70;99.90
15286;DHT22;7744;52.172;10.668;2023-04-08T07:02:08;5.70;99.90
15286;DHT22;7744;52.172;10.668;2023-04-08T07:04:33;5.70;1.00
15286;DHT22;7744;52.172;10.668;2023-04-08T07:06:59;5.70;99.90
15286;DHT22;7744;52.172;10.668;2023-04-08T07:09:24;5.70;99.90
15286;DHT22;7744;52.172;10.668;2023-04-08T07:11:50;5.70;74.50
15286;DHT22;7744;52.172;10.668;2023-04-08T07:14:16;5.70;1.00
15286;DHT22;7744;52.172;10.668;2023-04-08T07:16:41;5.70;1.00
15286;DHT22;7744;52.172;10.668;2023-04-08T07:19:07;5.80;1.00
15286;DHT22;7744;52.172;10.668;2023-04-08T07:21:32;5.80;1.00
15286;DHT22;7744;52.172;10.668;2023-04-08T07:23:58;5.80;99.90
15286;DHT22;7744;52.172;10.668;2023-04-08T07:26:23;5.80;1.00
15286;DHT22;7744;52.172;10.668;2023-04-08T07:28:49;5.80;1.00
15286;DHT22;7744;52.172;10.668;2023-04-08T07:31:16;5.80;99.90
15286;DHT22;7744;52.172;10.668;2023-04-08T07:33:43;5.80;99.90
15286;DHT22;7744;52.172;10.668;2023-04-08T07:36:11;5.80;99.90
15286;DHT22;7744;52.172;10.668;2023-04-08T07:38:37;5.80;21.10
15286;DHT22;7744;52.172;10.668;2023-04-08T07:41:03;5.90;99.90
15286;DHT22;7744;52.172;10.668;2023-04-08T07:43:30;5.90;99.90
15286;DHT22;7744;52.172;10.668;2023-04-08T07:46:00;6.00;99.90
15286;DHT22;7744;52.172;10.668;2023-04-08T07:48:28;5.90;99.90
15286;DHT22;7744;52.172;10.668;2023-04-08T07:50:54;5.90;99.90
15286;DHT22;7744;52.172;10.668;2023-04-08T07:53:20;5.90;99.90
15286;DHT22;7744;52.172;10.668;2023-04-08T07:55:45;5.80;99.90
15286;DHT22;7744;52.172;10.668;2023-04-08T07:58:11;5.90;99.90
15286;DHT22;7744;52.172;10.668;2023-04-08T08:00:36;5.90;99.90
15286;DHT22;7744;52.172;10.668;2023-04-08T08:03:02;5.80;99.90
15286;DHT22;7744;52.172;10.668;2023-04-08T08:05:28;5.90;99.90
15286;DHT22;7744;52.172;10.668;2023-04-08T08:07:53;6.30;1.00
15286;DHT22;7744;52.172;10.668;2023-04-08T08:10:19;6.00;1.00
15286;DHT22;7744;52.172;10.668;2023-04-08T08:12:44;6.00;1.00
15286;DHT22;7744;52.172;10.668;2023-04-08T08:15:10;6.00;1.00
15286;DHT22;7744;52.172;10.668;2023-04-08T08:17:35;6.00;99.90
15286;DHT22;7744;52.172;10.668;2023-04-08T08:20:01;6.00;99.90
15286;DHT22;7744;52.172;10.668;2023-04-08T08:22:28;6.00;99.90
15286;DHT22;7744;52.172;10.668;2023-04-08T08:24:55;5.90;99.90
15286;DHT22;7744;52.172;10.668;2023-04-08T08:27:21;5.90;1.00
15286;DHT22;7744;52.172;10.668;2023-04-08T08:29:47;5.90;1.00
15286;DHT22;7744;52.172;10.668;2023-04-08T08:32:12;6.00;1.00
15286;DHT22;7744;52.172;10.668;2023-04-08T08:34:38;6.10;1.00
15286;DHT22;7744;52.172;10.668;2023-04-08T08:37:03;6.10;99.90
15286;DHT22;7744;52.172;10.668;2023-04-08T08:39:29;6.20;1.00
15286;DHT22;7744;52.172;10.668;2023-04-08T08:41:55;6.20;1.00
15286;DHT22;7744;52.172;10.668;2023-04-08T08:44:21;6.20;1.00
15286;DHT22;7744;52.172;10.668;2023-04-08T08:46:47;6.20;1.00
15286;DHT22;7744;52.172;10.668;2023-04-08T08:49:13;6.20;1.00
15286;DHT22;7744;52.172;10.668;2023-04-08T08:51:44;6.20;1.00
15286;DHT22;7744;52.172;10.668;2023-04-08T08:54:10;6.10;99.90
15286;DHT22;7744;52.172;10.668;2023-04-08T08:56:36;6.10;99.90
15286;DHT22;7744;52.172;10.668;2023-04-08T08:59:01;6.20;1.00
15286;DHT22;7744;52.172;10.668;2023-04-08T09:01:35;6.30;1.00
15286;DHT22;7744;52.172;10.668;2023-04-08T09:04:10;6.20;1.00
15286;DHT22;7744;52.172;10.668;2023-04-08T09:06:37;6.20;1.00
15286;DHT22;7744;52.172;10.668;2023-04-08T09:09:03;6.20;1.00
15286;DHT22;7744;52.172;10.668;2023-04-08T09:11:35;6.20;1.00
15286;DHT22;7744;52.172;10.668;2023-04-08T09:14:01;6.30;1.00
15286;DHT22;7744;52.172;10.668;2023-04-08T09:16:27;6.20;1.00
15286;DHT22;7744;52.172;10.668;2023-04-08T09:18:55;6.10;1.00
15286;DHT22;7744;52.172;10.668;2023-04-08T09:21:32;5.90;20.20
15286;DHT22;7744;52.172;10.668;2023-04-08T09:23:59;6.00;1.00
15286;DHT22;7744;52.172;10.668;2023-04-08T09:26:25;5.90;1.00
15286;DHT22;7744;52.172;10.668;2023-04-08T09:29:08;5.90;99.90
15286;DHT22;7744;52.172;10.668;2023-04-08T09:31:36;7.20;99.90
15286;DHT22;7744;52.172;10.668;2023-04-08T09:34:29;6.20;1.00
15286;DHT22;7744;52.172;10.668;2023-04-08T09:36:56;6.20;12.90
15286;DHT22;7744;52.172;10.668;2023-04-08T09:39:22;6.20;1.00
15286;DHT22;7744;52.172;10.668;2023-04-08T09:41:49;6.30;99.90
15286;DHT22;7744;52.172;10.668;2023-04-08T09:44:16;6.50;1.00
15286;DHT22;7744;52.172;10.668;2023-04-08T09:52:12;6.90;1.00
15286;DHT22;7744;52.172;10.668;2023-04-08T09:55:01;6.70;99.90
15286;DHT22;7744;52.172;10.668;2023-04-08T09:57:40;6.90;99.90
15286;DHT22;7744;52.172;10.668;2023-04-08T10:00:15;6.90;99.00
15286;DHT22;7744;52.172;10.668;2023-04-08T10:05:23;7.00;1.00
15286;DHT22;7744;52.172;10.668;2023-04-08T10:07:49;7.20;99.90
15286;DHT22;7744;52.172;10.668;2023-04-08T10:10:15;7.20;99.90
15286;DHT22;7744;52.172;10.668;2023-04-08T10:12:41;7.20;99.90
15286;DHT22;7744;52.172;10.668;2023-04-08T10:15:27;7.20;99.90
15286;DHT22;7744;52.172;10.668;2023-04-08T10:18:28;7.20;99.90
15286;DHT22;7744;52.172;10.668;2023-04-08T10:20:45;7.10;99.90
15286;DHT22;7744;52.172;10.668;2023-04-08T10:23:13;7.20;1.00
15286;DHT22;7744;52.172;10.668;2023-04-08T10:25:40;6.80;1.00
15286;DHT22;7744;52.172;10.668;2023-04-08T10:30:42;6.90;99.90
15286;DHT22;7744;52.172;10.668;2023-04-08T10:35:53;6.90;99.90
15286;DHT22;7744;52.172;10.668;2023-04-08T10:38:19;8.00;1.00
15286;DHT22;7744;52.172;10.668;2023-04-08T10:40:47;6.90;1.00
15286;DHT22;7744;52.172;10.668;2023-04-08T10:43:14;7.10;1.00
15286;DHT22;7744;52.172;10.668;2023-04-08T10:45:40;7.20;99.90
15286;DHT22;7744;52.172;10.668;2023-04-08T10:50:43;7.30;1.00
15286;DHT22;7744;52.172;10.668;2023-04-08T10:53:09;7.40;1.00
15286;DHT22;7744;52.172;10.668;2023-04-08T10:55:35;7.30;99.90
15286;DHT22;7744;52.172;10.668;2023-04-08T10:58:08;7.40;99.90
15286;DHT22;7744;52.172;10.668;2023-04-08T11:00:39;7.50;99.90
15286;DHT22;7744;52.172;10.668;2023-04-08T11:03:09;7.40;99.90
15286;DHT22;7744;52.172;10.668;2023-04-08T11:05:37;7.50;99.90
15286;DHT22;7744;52.172;10.668;2023-04-08T11:08:04;7.50;99.90
15286;DHT22;7744;52.172;10.668;2023-04-08T11:10:32;7.80;99.90
15286;DHT22;7744;52.172;10.668;2023-04-08T11:13:01;8.00;99.90
15286;DHT22;7744;52.172;10.668;2023-04-08T11:15:29;7.70;99.90
15286;DHT22;7744;52.172;10.668;2023-04-08T11:17:55;7.80;99.90
15286;DHT22;7744;52.172;10.668;2023-04-08T11:20:21;7.70;99.90
15286;DHT22;7744;52.172;10.668;2023-04-08T11:22:47;7.80;99.90
15286;DHT22;7744;52.172;10.668;2023-04-08T11:25:13;7.90;99.90
15286;DHT22;7744;52.172;10.668;2023-04-08T11:27:39;8.20;99.90
15286;DHT22;7744;52.172;10.668;2023-04-08T11:30:06;8.10;99.90
15286;DHT22;7744;52.172;10.668;2023-04-08T11:32:33;8.40;99.90
15286;DHT22;7744;52.172;10.668;2023-04-08T11:35:00;8.40;99.90
15286;DHT22;7744;52.172;10.668;2023-04-08T11:37:35;8.50;99.90
15286;DHT22;7744;52.172;10.668;2023-04-08T11:40:01;8.10;99.90
15286;DHT22;7744;52.172;10.668;2023-04-08T11:42:28;7.80;99.90
15286;DHT22;7744;52.172;10.668;2023-04-08T11:44:54;7.60;99.90
15286;DHT22;7744;52.172;10.668;2023-04-08T11:47:19;7.90;99.90
15286;DHT22;7744;52.172;10.668;2023-04-08T11:49:46;8.00;99.90
15286;DHT22;7744;52.172;10.668;2023-04-08T11:52:12;8.60;99.90
15286;DHT22;7744;52.172;10.668;2023-04-08T11:54:42;7.70;99.90
15286;DHT22;7744;52.172;10.668;2023-04-08T11:57:08;7.80;99.90
15286;DHT22;7744;52.172;10.668;2023-04-08T11:59:37;8.00;99.90
15286;DHT22;7744;52.172;10.668;2023-04-08T12:02:03;7.90;99.90
15286;DHT22;7744;52.172;10.668;2023-04-08T12:04:29;7.70;99.90
15286;DHT22;7744;52.172;10.668;2023-04-08T12:06:55;7.50;99.90
15286;DHT22;7744;52.172;10.668;2023-04-08T12:09:21;7.40;1.00
15286;DHT22;7744;52.172;10.668;2023-04-08T12:11:47;7.60;99.90
15286;DHT22;7744;52.172;10.668;2023-04-08T12:14:13;7.50;99.90
15286;DHT22;7744;52.172;10.668;2023-04-08T12:16:38;7.70;99.90
15286;DHT22;7744;52.172;10.668;2023-04-08T12:19:04;7.70;99.90
15286;DHT22;7744;52.172;10.668;2023-04-08T12:21:30;7.90;99.90
15286;DHT22;7744;52.172;10.668;2023-04-08T12:23:56;8.00;99.90
15286;DHT22;7744;52.172;10.668;2023-04-08T12:26:22;8.00;99.90
15286;DHT22;7744;52.172;10.668;2023-04-08T12:28:48;8.00;99.90
15286;DHT22;7744;52.172;10.668;2023-04-08T12:31:14;8.00;99.90
15286;DHT22;7744;52.172;10.668;2023-04-08T12:33:39;8.00;99.90
15286;DHT22;7744;52.172;10.668;2023-04-08T12:36:05;7.90;99.90
15286;DHT22;7744;52.172;10.668;2023-04-08T12:38:31;7.90;99.90
15286;DHT22;7744;52.172;10.668;2023-04-08T12:40:58;7.70;99.90
15286;DHT22;7744;52.172;10.668;2023-04-08T12:43:23;7.50;99.90
15286;DHT22;7744;52.172;10.668;2023-04-08T12:45:50;7.50;99.90
15286;DHT22;7744;52.172;10.668;2023-04-08T12:48:16;7.60;99.90
15286;DHT22;7744;52.172;10.668;2023-04-08T12:50:41;7.60;99.90
15286;DHT22;7744;52.172;10.668;2023-04-08T12:53:07;7.80;99.90
15286;DHT22;7744;52.172;10.668;2023-04-08T12:55:33;7.80;99.90
15286;DHT22;7744;52.172;10.668;2023-04-08T12:57:59;7.90;99.90
15286;DHT22;7744;52.172;10.668;2023-04-08T13:00:25;8.10;99.90
15286;DHT22;7744;52.172;10.668;2023-04-08T13:02:50;8.00;99.90
15286;DHT22;7744;52.172;10.668;2023-04-08T13:05:16;8.00;99.90
15286;DHT22;7744;52.172;10.668;2023-04-08T13:07:42;8.10;99.90
15286;DHT22;7744;52.172;10.668;2023-04-08T13:10:07;8.20;99.90
15286;DHT22;7744;52.172;10.668;2023-04-08T13:12:33;8.20;99.90
15286;DHT22;7744;52.172;10.668;2023-04-08T13:14:59;8.20;99.90
15286;DHT22;7744;52.172;10.668;2023-04-08T13:17:25;8.20;99.90
15286;DHT22;7744;52.172;10.668;2023-04-08T13:19:52;8.20;99.90
15286;DHT22;7744;52.172;10.668;2023-04-08T13:22:17;8.20;99.90
15286;DHT22;7744;52.172;10.668;2023-04-08T13:24:43;8.20;99.90
15286;DHT22;7744;52.172;10.668;2023-04-08T13:27:08;8.20;99.90
15286;DHT22;7744;52.172;10.668;2023-04-08T13:29:34;8.30;99.90
15286;DHT22;7744;52.172;10.668;2023-04-08T13:31:59;8.40;99.90
15286;DHT22;7744;52.172;10.668;2023-04-08T13:34:26;8.40;99.90
15286;DHT22;7744;52.172;10.668;2023-04-08T13:36:51;8.40;99.90
15286;DHT22;7744;52.172;10.668;2023-04-08T13:39:17;8.50;99.90
15286;DHT22;7744;52.172;10.668;2023-04-08T13:41:43;8.60;99.90
15286;DHT22;7744;52.172;10.668;2023-04-08T13:44:08;8.50;99.90
15286;DHT22;7744;52.172;10.668;2023-04-08T13:46:34;8.50;99.90
15286;DHT22;7744;52.172;10.668;2023-04-08T13:49:00;8.40;99.90
15286;DHT22;7744;52.172;10.668;2023-04-08T13:51:27;8.40;99.90
15286;DHT22;7744;52.172;10.668;2023-04-08T13:53:53;8.10;99.90
15286;DHT22;7744;52.172;10.668;2023-04-08T13:56:18;8.30;99.90
15286;DHT22;7744;52.172;10.668;2023-04-08T13:58:45;8.40;99.90
15286;DHT22;7744;52.172;10.668;2023-04-08T14:01:11;8.30;99.90
15286;DHT22;7744;52.172;10.668;2023-04-08T14:03:36;8.40;99.90
15286;DHT22;7744;52.172;10.668;2023-04-08T14:06:02;8.50;99.90
15286;DHT22;7744;52.172;10.668;2023-04-08T14:08:28;8.50;99.90
15286;DHT22;7744;52.172;10.668;2023-04-08T14:10:56;8.50;99.90
15286;DHT22;7744;52.172;10.668;2023-04-08T14:13:22;8.50;99.90
15286;DHT22;7744;52.172;10.668;2023-04-08T14:15:47;8.40;99.90
15286;DHT22;7744;52.172;10.668;2023-04-08T14:18:14;8.40;99.90
15286;DHT22;7744;52.172;10.668;2023-04-08T14:20:42;8.50;99.90
15286;DHT22;7744;52.172;10.668;2023-04-08T14:23:07;8.60;98.10
15286;DHT22;7744;52.172;10.668;2023-04-08T14:25:33;8.60;88.70
15286;DHT22;7744;52.172;10.668;2023-04-08T14:27:59;8.70;84.50
15286;DHT22;7744;52.172;10.668;2023-04-08T14:30:25;8.60;73.50
15286;DHT22;7744;52.172;10.668;2023-04-08T14:32:51;8.60;63.60
15286;DHT22;7744;52.172;10.668;2023-04-08T14:35:17;8.50;55.40
15286;DHT22;7744;52.172;10.668;2023-04-08T14:37:42;8.50;71.30
15286;DHT22;7744;52.172;10.668;2023-04-08T14:40:08;8.40;78.40
15286;DHT22;7744;52.172;10.668;2023-04-08T14:42:34;8.40;93.60
15286;DHT22;7744;52.172;10.668;2023-04-08T14:45:00;8.40;75.20
15286;DHT22;7744;52.172;10.668;2023-04-08T14:47:27;8.30;67.50
15286;DHT22;7744;52.172;10.668;2023-04-08T14:49:53;8.30;80.50
15286;DHT22;7744;52.172;10.668;2023-04-08T14:52:18;8.30;71.80
15286;DHT22;7744;52.172;10.668;2023-04-08T14:54:44;8.40;56.20
15286;DHT22;7744;52.172;10.668;2023-04-08T14:57:11;8.30;52.80
15286;DHT22;7744;52.172;10.668;2023-04-08T14:59:37;8.60;48.10
15286;DHT22;7744;52.172;10.668;2023-04-08T15:02:03;8.50;45.90
15286;DHT22;7744;52.172;10.668;2023-04-08T15:04:28;8.50;23.70
15286;DHT22;7744;52.172;10.668;2023-04-08T15:06:54;8.50;13.00
15286;DHT22;7744;52.172;10.668;2023-04-08T15:09:20;8.60;12.50
15286;DHT22;7744;52.172;10.668;2023-04-08T15:11:46;8.70;17.60
15286;DHT22;7744;52.172;10.668;2023-04-08T15:14:11;8.80;11.50
15286;DHT22;7744;52.172;10.668;2023-04-08T15:16:37;8.80;5.10
15286;DHT22;7744;52.172;10.668;2023-04-08T15:19:02;8.80;1.00
15286;DHT22;7744;52.172;10.668;2023-04-08T15:21:28;8.80;1.00
15286;DHT22;7744;52.172;10.668;2023-04-08T15:23:55;8.70;1.00
15286;DHT22;7744;52.172;10.668;2023-04-08T15:26:21;8.60;3.00
15286;DHT22;7744;52.172;10.668;2023-04-08T15:28:47;8.50;1.00
15286;DHT22;7744;52.172;10.668;2023-04-08T15:31:12;8.50;1.00
15286;DHT22;7744;52.172;10.668;2023-04-08T15:33:38;8.50;1.00
15286;DHT22;7744;52.172;10.668;2023-04-08T15:36:06;8.50;1.00
15286;DHT22;7744;52.172;10.668;2023-04-08T15:38:31;8.60;1.00
15286;DHT22;7744;52.172;10.668;2023-04-08T15:41:00;8.60;1.70
15286;DHT22;7744;52.172;10.668;2023-04-08T15:43:26;8.80;2.60
15286;DHT22;7744;52.172;10.668;2023-04-08T15:45:52;8.80;1.00
15286;DHT22;7744;52.172;10.668;2023-04-08T15:48:18;8.80;1.00
15286;DHT22;7744;52.172;10.668;2023-04-08T15:50:44;8.90;1.00
15286;DHT22;7744;52.172;10.668;2023-04-08T15:53:10;9.00;1.00
15286;DHT22;7744;52.172;10.668;2023-04-08T15:55:39;8.90;1.00
15286;DHT22;7744;52.172;10.668;2023-04-08T15:58:05;8.80;1.00
15286;DHT22;7744;52.172;10.668;2023-04-08T16:00:31;8.50;1.00
15286;DHT22;7744;52.172;10.668;2023-04-08T16:02:56;8.10;1.00
15286;DHT22;7744;52.172;10.668;2023-04-08T16:05:22;8.70;6.20
15286;DHT22;7744;52.172;10.668;2023-04-08T16:07:47;8.80;14.00
15286;DHT22;7744;52.172;10.668;2023-04-08T16:10:13;8.70;12.80
15286;DHT22;7744;52.172;10.668;2023-04-08T16:12:39;8.40;22.40
15286;DHT22;7744;52.172;10.668;2023-04-08T16:15:05;8.40;32.90